createdAt,value
2023-03-22T00:02:30.419Z,8.70
2023-03-22T00:05:32.731Z,8.60
2023-03-22T00:08:34.520Z,8.60
2023-03-22T00:11:36.208Z,8.60
2023-03-22T00:14:37.971Z,8.50
2023-03-22T00:17:39.664Z,8.50
2023-03-22T00:20:53.892Z,8.40
2023-03-22T00:23:55.613Z,8.40
2023-03-22T00:26:58.536Z,8.30
2023-03-22T00:30:00.245Z,8.30
2023-03-22T00:33:01.981Z,8.30
2023-03-22T00:36:09.604Z,8.30
2023-03-22T00:39:11.628Z,8.30
2023-03-22T00:42:13.336Z,8.30
2023-03-22T00:45:15.137Z,8.30
2023-03-22T00:48:16.843Z,8.30
2023-03-22T00:51:18.673Z,8.30
2023-03-22T00:54:20.574Z,8.40
2023-03-22T00:57:22.827Z,8.40
2023-03-22T01:00:24.829Z,8.40
2023-03-22T01:03:26.578Z,8.40
2023-03-22T01:06:28.246Z,8.40
2023-03-22T01:09:33.626Z,8.40
2023-03-22T01:12:35.880Z,8.50
2023-03-22T01:15:37.759Z,8.50
2023-03-22T01:18:39.534Z,8.40
2023-03-22T01:21:41.800Z,8.40
2023-03-22T01:24:43.534Z,8.40
2023-03-22T01:27:45.942Z,8.40
2023-03-22T01:30:47.710Z,8.40
2023-03-22T01:33:49.433Z,8.30
2023-03-22T01:36:51.140Z,8.40
2023-03-22T01:39:53.411Z,8.40
2023-03-22T01:42:55.866Z,8.40
2023-03-22T01:45:57.872Z,8.40
2023-03-22T01:49:01.923Z,8.30
2023-03-22T01:52:11.092Z,8.40
2023-03-22T01:55:13.383Z,8.30
2023-03-22T01:58:18.067Z,8.30
2023-03-22T02:01:20.726Z,8.30
2023-03-22T02:04:25.019Z,8.30
2023-03-22T02:07:27.225Z,8.30
2023-03-22T02:10:29.072Z,8.30
2023-03-22T02:13:43.062Z,8.30
2023-03-22T02:17:00.329Z,8.30
2023-03-22T02:20:22.241Z,8.30
2023-03-22T02:23:39.199Z,8.30
2023-03-22T02:26:41.548Z,8.30
2023-03-22T02:30:20.900Z,8.30
2023-03-22T02:33:41.764Z,8.30
2023-03-22T02:37:21.032Z,8.30
2023-03-22T02:40:32.237Z,8.30
2023-03-22T02:43:55.370Z,8.40
2023-03-22T02:47:09.933Z,8.40
2023-03-22T02:50:20.815Z,8.40
2023-03-22T02:53:24.934Z,8.40
2023-03-22T02:56:34.943Z,8.40
2023-03-22T02:59:40.988Z,8.40
2023-03-22T03:02:50.696Z,8.40
2023-03-22T03:05:56.463Z,8.40
2023-03-22T03:09:02.779Z,8.40
2023-03-22T03:12:13.468Z,8.40
2023-03-22T03:15:18.841Z,8.40
2023-03-22T03:18:58.943Z,8.30
2023-03-22T03:22:12.808Z,8.30
2023-03-22T03:25:45.559Z,8.30
2023-03-22T03:29:01.530Z,8.30
2023-03-22T03:32:15.472Z,8.40
2023-03-22T03:35:30.888Z,8.40
2023-03-22T03:38:36.338Z,8.30
2023-03-22T03:41:38.949Z,8.30
2023-03-22T03:44:41.510Z,8.30
2023-03-22T03:47:45.536Z,8.20
2023-03-22T03:50:50.901Z,8.20
2023-03-22T03:53:52.562Z,8.10
2023-03-22T03:56:54.639Z,8.10
2023-03-22T03:59:56.328Z,8.00
2023-03-22T04:02:58.001Z,8.00
2023-03-22T04:05:59.816Z,8.00
2023-03-22T04:09:01.762Z,8.00
2023-03-22T04:12:03.746Z,7.90
2023-03-22T04:15:06.293Z,7.80
2023-03-22T04:18:09.749Z,7.90
2023-03-22T04:21:12.156Z,7.80
2023-03-22T04:24:14.829Z,7.80
2023-03-22T04:27:18.224Z,7.80
2023-03-22T04:30:20.388Z,7.80
2023-03-22T04:33:23.068Z,7.80
2023-03-22T04:36:25.156Z,7.70
2023-03-22T04:39:27.527Z,7.70
2023-03-22T04:42:29.284Z,7.70
2023-03-22T04:45:32.132Z,7.70
2023-03-22T04:48:33.788Z,7.70
2023-03-22T04:51:35.738Z,7.70
2023-03-22T04:54:38.022Z,7.70
2023-03-22T04:57:39.709Z,7.70
2023-03-22T05:00:42.354Z,7.60
2023-03-22T05:03:48.250Z,7.60
2023-03-22T05:06:49.993Z,7.60
2023-03-22T05:09:51.768Z,7.60
2023-03-22T05:12:53.442Z,7.60
2023-03-22T05:15:55.356Z,7.50
2023-03-22T05:18:57.053Z,7.50
2023-03-22T05:22:02.033Z,7.50
2023-03-22T05:25:05.588Z,7.50
2023-03-22T05:28:07.321Z,7.40
2023-03-22T05:31:10.907Z,7.40
2023-03-22T05:34:13.604Z,7.40
2023-03-22T05:37:15.342Z,7.40
2023-03-22T05:40:17.203Z,7.40
2023-03-22T05:43:19.582Z,7.50
2023-03-22T05:46:21.520Z,7.40
2023-03-22T05:49:23.338Z,7.50
2023-03-22T05:52:25.016Z,7.60
2023-03-22T05:55:27.107Z,7.60
2023-03-22T05:58:30.760Z,7.80
2023-03-22T06:01:33.541Z,8.20
2023-03-22T06:04:35.256Z,8.80
2023-03-22T06:07:38.485Z,9.30
2023-03-22T06:10:40.365Z,9.40
2023-03-22T06:13:42.159Z,9.40
2023-03-22T06:16:43.937Z,9.40
2023-03-22T06:19:45.649Z,9.30
2023-03-22T06:22:47.336Z,9.10
2023-03-22T06:25:49.167Z,9.00
2023-03-22T06:28:50.978Z,8.80
2023-03-22T06:31:52.826Z,8.70
2023-03-22T06:34:55.408Z,8.60
2023-03-22T06:37:57.096Z,8.60
2023-03-22T06:40:58.783Z,8.60
2023-03-22T06:44:01.049Z,8.60
2023-03-22T06:47:40.960Z,8.80
2023-03-22T06:50:45.005Z,9.20
2023-03-22T06:53:47.156Z,9.40
2023-03-22T06:56:48.988Z,9.40
2023-03-22T06:59:50.662Z,9.30
2023-03-22T07:02:52.839Z,9.30
2023-03-22T07:06:02.142Z,9.40
2023-03-22T07:09:03.886Z,9.40
2023-03-22T07:12:06.880Z,9.40
2023-03-22T07:15:09.264Z,9.40
2023-03-22T07:18:10.910Z,9.50
2023-03-22T07:21:13.025Z,9.60
2023-03-22T07:24:14.666Z,10.20
2023-03-22T07:27:16.700Z,10.90
2023-03-22T07:30:18.412Z,11.30
2023-03-22T07:33:20.233Z,11.80
2023-03-22T07:36:23.834Z,12.00
2023-03-22T07:39:25.908Z,12.10
2023-03-22T07:42:27.555Z,12.10
2023-03-22T07:45:32.288Z,12.30
2023-03-22T07:48:35.293Z,12.40
2023-03-22T07:51:36.916Z,12.50
2023-03-22T07:54:39.186Z,12.80
2023-03-22T07:57:41.053Z,12.80
2023-03-22T08:00:42.795Z,12.80
2023-03-22T08:03:44.490Z,13.00
2023-03-22T08:06:46.606Z,13.10
2023-03-22T08:09:49.430Z,13.00
2023-03-22T08:12:51.253Z,13.10
2023-03-22T08:15:53.049Z,13.50
2023-03-22T08:18:54.994Z,13.70
2023-03-22T08:21:56.712Z,13.90
2023-03-22T08:24:58.416Z,13.90
2023-03-22T08:28:00.313Z,14.10
2023-03-22T08:31:02.482Z,14.20
2023-03-22T08:34:04.153Z,13.90
2023-03-22T08:37:06.948Z,13.90
2023-03-22T08:40:09.835Z,13.50
2023-03-22T08:43:11.550Z,13.50
2023-03-22T08:46:13.338Z,13.30
2023-03-22T08:49:15.483Z,13.30
2023-03-22T08:52:17.170Z,13.00
2023-03-22T08:55:19.898Z,12.90
2023-03-22T08:58:21.546Z,13.10
2023-03-22T09:01:23.488Z,13.40
2023-03-22T09:04:26.189Z,13.20
2023-03-22T09:07:27.928Z,13.00
2023-03-22T09:10:29.761Z,12.80
2023-03-22T09:13:31.438Z,12.50
2023-03-22T09:16:33.194Z,12.50
2023-03-22T09:19:35.905Z,12.40
2023-03-22T09:22:38.311Z,12.10
2023-03-22T09:25:43.493Z,11.90
2023-03-22T09:28:46.696Z,11.70
2023-03-22T09:31:48.984Z,11.70
2023-03-22T09:34:50.691Z,11.40
2023-03-22T09:37:54.605Z,11.30
2023-03-22T09:41:02.671Z,11.20
2023-03-22T09:44:09.038Z,11.20
2023-03-22T09:47:17.863Z,11.30
2023-03-22T09:50:22.514Z,11.60
2023-03-22T09:53:28.196Z,11.70
2023-03-22T09:56:31.971Z,11.80
2023-03-22T09:59:46.542Z,11.70
2023-03-22T10:03:03.320Z,11.70
2023-03-22T10:06:13.146Z,11.70
2023-03-22T10:09:17.689Z,11.70
2023-03-22T10:12:30.390Z,11.70
2023-03-22T10:15:43.209Z,11.90
2023-03-22T10:18:49.799Z,12.00
2023-03-22T10:21:54.478Z,12.10
2023-03-22T10:25:21.379Z,12.20
2023-03-22T10:28:31.350Z,12.20
2023-03-22T10:31:34.263Z,12.10
2023-03-22T10:34:36.124Z,12.00
2023-03-22T10:37:40.162Z,12.00
2023-03-22T10:40:42.590Z,11.90
2023-03-22T10:43:47.651Z,12.00
2023-03-22T10:46:51.385Z,12.10
2023-03-22T10:49:56.157Z,12.20
2023-03-22T10:53:31.604Z,12.10
2023-03-22T10:56:33.415Z,12.10
2023-03-22T10:59:49.220Z,12.10
2023-03-22T11:02:59.011Z,12.20
2023-03-22T11:06:01.613Z,12.30
2023-03-22T11:09:19.384Z,12.50
2023-03-22T11:12:21.079Z,12.50
2023-03-22T11:15:32.515Z,12.50
2023-03-22T11:18:34.978Z,12.50
2023-03-22T11:21:36.758Z,12.40
2023-03-22T11:24:38.532Z,12.50
2023-03-22T11:27:51.424Z,12.50
2023-03-22T11:31:20.034Z,12.40
2023-03-22T11:34:24.605Z,12.60
2023-03-22T11:37:26.442Z,12.70
2023-03-22T11:40:37.704Z,12.70
2023-03-22T11:43:48.339Z,12.80
2023-03-22T11:47:02.705Z,12.90
2023-03-22T11:50:09.416Z,12.90
2023-03-22T11:53:18.018Z,12.80
2023-03-22T11:56:25.924Z,12.70
2023-03-22T11:59:57.079Z,12.70
2023-03-22T12:03:06.184Z,12.70
2023-03-22T12:06:22.746Z,12.80
2023-03-22T12:09:49.985Z,12.70
2023-03-22T12:12:57.958Z,12.70
2023-03-22T12:16:04.774Z,12.80
2023-03-22T12:19:23.889Z,12.70
2023-03-22T12:22:35.165Z,12.80
2023-03-22T12:25:37.967Z,12.90
2023-03-22T12:29:15.351Z,13.00
2023-03-22T12:32:26.389Z,13.10
2023-03-22T12:35:33.228Z,13.20
2023-03-22T12:39:03.121Z,13.10
2023-03-22T12:42:23.536Z,13.10
2023-03-22T12:45:29.228Z,13.10
2023-03-22T12:48:45.188Z,13.20
2023-03-22T12:51:50.229Z,13.20
2023-03-22T12:54:53.367Z,13.20
2023-03-22T12:57:55.629Z,13.20
2023-03-22T13:01:18.279Z,13.30
2023-03-22T13:04:26.127Z,13.40
2023-03-22T13:07:30.416Z,13.40
2023-03-22T13:10:36.566Z,13.40
2023-03-22T13:13:46.671Z,13.30
2023-03-22T13:17:00.688Z,13.30
2023-03-22T13:20:27.788Z,13.20
2023-03-22T13:23:29.574Z,13.30
2023-03-22T13:26:36.810Z,13.20
2023-03-22T13:29:38.911Z,13.20
2023-03-22T13:32:51.644Z,13.20
2023-03-22T13:35:57.685Z,13.30
2023-03-22T13:39:04.852Z,13.20
2023-03-22T13:42:16.832Z,13.20
2023-03-22T13:45:34.162Z,13.30
2023-03-22T13:48:46.826Z,13.40
2023-03-22T13:51:49.314Z,13.40
2023-03-22T13:54:52.575Z,13.40
2023-03-22T13:57:59.449Z,13.40
2023-03-22T14:01:02.551Z,13.40
2023-03-22T14:04:12.376Z,13.40
2023-03-22T14:07:35.086Z,13.40
2023-03-22T14:11:00.864Z,13.40
2023-03-22T14:14:15.736Z,13.30
2023-03-22T14:18:03.622Z,13.40
2023-03-22T14:21:34.511Z,13.40
